createdAt,value
2023-05-10T00:01:32.755Z,5.10
2023-05-10T00:04:37.790Z,5.50
2023-05-10T00:07:45.739Z,5.47
2023-05-10T00:10:50.770Z,5.70
2023-05-10T00:13:55.343Z,6.28
2023-05-10T00:17:00.180Z,6.15
2023-05-10T00:20:06.060Z,6.20
2023-05-10T00:23:10.780Z,5.95
2023-05-10T00:26:16.075Z,5.57
2023-05-10T00:29:22.997Z,5.55
2023-05-10T00:32:27.831Z,6.18
2023-05-10T00:35:33.576Z,5.63
2023-05-10T00:38:38.029Z,6.22
2023-05-10T00:41:42.551Z,6.22
2023-05-10T00:44:47.837Z,6.25
2023-05-10T00:47:56.099Z,6.75
2023-05-10T00:51:02.400Z,7.20
2023-05-10T00:54:07.665Z,6.70
2023-05-10T00:57:12.609Z,7.20
2023-05-10T01:00:19.248Z,7.15
2023-05-10T01:03:23.795Z,6.60
2023-05-10T01:06:28.747Z,8.02
2023-05-10T01:09:33.699Z,8.05
2023-05-10T01:12:41.954Z,8.85
2023-05-10T01:15:47.997Z,9.10
2023-05-10T01:18:53.908Z,8.15
2023-05-10T01:22:47.927Z,8.57
2023-05-10T01:26:18.368Z,8.03
2023-05-10T01:30:23.396Z,7.25
2023-05-10T01:33:45.724Z,7.67
2023-05-10T01:37:07.055Z,7.35
2023-05-10T01:40:19.726Z,8.18
2023-05-10T01:43:32.287Z,8.82
2023-05-10T01:46:41.938Z,8.80
2023-05-10T01:49:54.215Z,8.65
2023-05-10T01:53:02.580Z,8.88
2023-05-10T01:56:08.667Z,9.40
2023-05-10T01:59:19.366Z,10.10
2023-05-10T02:02:25.574Z,11.07
2023-05-10T02:05:31.400Z,10.77
2023-05-10T02:08:38.000Z,11.23
2023-05-10T02:11:45.002Z,11.30
2023-05-10T02:14:53.747Z,11.93
2023-05-10T02:18:01.090Z,12.23
2023-05-10T02:21:06.330Z,11.80
2023-05-10T02:24:13.566Z,12.80
2023-05-10T02:27:20.827Z,11.88
2023-05-10T02:30:25.710Z,11.35
2023-05-10T02:33:31.342Z,13.95
2023-05-10T02:36:36.780Z,12.82
2023-05-10T02:39:45.140Z,13.13
2023-05-10T02:42:53.297Z,13.55
2023-05-10T02:45:58.628Z,12.60
2023-05-10T02:49:03.685Z,14.38
2023-05-10T02:52:10.140Z,13.63
2023-05-10T02:55:19.007Z,13.73
2023-05-10T02:58:23.872Z,13.20
2023-05-10T03:01:29.030Z,14.07
2023-05-10T03:04:33.218Z,12.80
2023-05-10T03:07:38.440Z,12.68
2023-05-10T03:10:59.689Z,13.05
2023-05-10T03:15:09.212Z,11.80
2023-05-10T03:18:44.458Z,11.52
2023-05-10T03:21:53.538Z,11.55
2023-05-10T03:24:58.882Z,11.30
2023-05-10T03:28:06.969Z,12.02
2023-05-10T03:31:13.849Z,11.85
2023-05-10T03:34:25.236Z,12.10
2023-05-10T03:37:30.746Z,12.25
2023-05-10T03:40:35.610Z,13.30
2023-05-10T03:43:40.090Z,12.57
2023-05-10T03:46:45.779Z,13.38
2023-05-10T03:49:50.774Z,12.82
2023-05-10T03:52:56.212Z,14.70
2023-05-10T03:56:00.420Z,13.50
2023-05-10T03:59:08.398Z,13.07
2023-05-10T04:02:13.308Z,13.55
2023-05-10T04:05:17.882Z,13.85
2023-05-10T04:08:22.499Z,14.95
2023-05-10T04:11:27.401Z,14.25
2023-05-10T04:14:32.197Z,14.43
2023-05-10T04:17:36.808Z,15.70
2023-05-10T04:20:41.357Z,17.23
2023-05-10T04:23:46.017Z,16.25
2023-05-10T04:26:50.714Z,16.02
2023-05-10T04:29:55.339Z,16.77
2023-05-10T04:33:00.135Z,15.93
2023-05-10T04:36:05.390Z,15.50
2023-05-10T04:39:10.807Z,15.52
2023-05-10T04:42:15.953Z,14.93
2023-05-10T04:45:20.668Z,16.17
2023-05-10T04:48:25.255Z,16.13
2023-05-10T04:51:29.620Z,15.43
2023-05-10T04:54:33.920Z,16.23
2023-05-10T04:57:38.310Z,17.05
2023-05-10T05:00:43.243Z,15.57
2023-05-10T05:03:48.277Z,14.00
2023-05-10T05:06:54.009Z,18.05
2023-05-10T05:09:58.857Z,17.13
2023-05-10T05:13:03.177Z,15.10
2023-05-10T05:16:08.268Z,16.90
2023-05-10T05:19:12.796Z,14.88
2023-05-10T05:22:18.343Z,14.52
2023-05-10T05:25:24.236Z,13.43
2023-05-10T05:28:33.735Z,14.73
2023-05-10T05:31:38.191Z,13.82
2023-05-10T05:34:42.938Z,14.70
2023-05-10T05:37:47.552Z,13.80
2023-05-10T05:40:51.896Z,13.25
2023-05-10T05:43:56.385Z,13.95
2023-05-10T05:47:00.911Z,13.75
2023-05-10T05:50:06.533Z,13.93
2023-05-10T05:53:10.879Z,14.18
2023-05-10T05:56:15.256Z,13.40
2023-05-10T05:59:19.803Z,13.80
2023-05-10T06:02:24.392Z,13.07
2023-05-10T06:05:28.670Z,13.73
2023-05-10T06:08:34.860Z,12.52
2023-05-10T06:11:39.290Z,13.63
2023-05-10T06:14:43.676Z,14.05
2023-05-10T06:17:50.190Z,13.32
2023-05-10T06:20:54.709Z,13.70
2023-05-10T06:23:59.297Z,14.70
2023-05-10T06:27:05.077Z,13.35
2023-05-10T06:30:13.277Z,12.60
2023-05-10T06:33:18.484Z,14.60
2023-05-10T06:36:24.424Z,13.82
2023-05-10T06:39:30.367Z,13.25
2023-05-10T06:42:34.880Z,13.18
2023-05-10T06:45:41.881Z,13.68
2023-05-10T06:48:46.378Z,15.23
2023-05-10T06:51:50.856Z,16.02
2023-05-10T06:54:55.157Z,15.02
2023-05-10T06:57:59.604Z,13.50
2023-05-10T07:01:08.122Z,12.63
2023-05-10T07:04:12.938Z,13.82
2023-05-10T07:07:17.749Z,14.38
2023-05-10T07:10:22.685Z,15.35
2023-05-10T07:13:27.573Z,13.23
2023-05-10T07:16:32.309Z,13.75
2023-05-10T07:19:37.069Z,13.40
2023-05-10T07:22:41.686Z,14.30
2023-05-10T07:25:52.379Z,14.40
2023-05-10T07:28:56.979Z,14.90
2023-05-10T07:32:01.496Z,14.68
2023-05-10T07:35:06.558Z,14.52
2023-05-10T07:38:12.122Z,14.48
2023-05-10T07:41:16.575Z,14.88
2023-05-10T07:44:21.384Z,15.30
2023-05-10T07:47:25.738Z,14.75
2023-05-10T07:50:30.605Z,14.82
2023-05-10T07:53:36.113Z,15.10
2023-05-10T07:56:45.701Z,17.10
2023-05-10T07:59:50.089Z,14.85
2023-05-10T08:02:54.612Z,14.50
2023-05-10T08:05:59.107Z,13.63
2023-05-10T08:09:03.907Z,14.75
2023-05-10T08:12:09.078Z,16.40
2023-05-10T08:15:13.619Z,14.68
2023-05-10T08:18:18.594Z,15.52
2023-05-10T08:21:23.160Z,13.48
2023-05-10T08:24:27.910Z,12.95
2023-05-10T08:27:32.429Z,11.98
2023-05-10T08:30:36.690Z,13.68
2023-05-10T08:33:42.441Z,13.57
2023-05-10T08:36:49.314Z,13.57
2023-05-10T08:39:54.087Z,12.95
2023-05-10T08:43:11.135Z,13.43
2023-05-10T08:46:19.233Z,12.10
2023-05-10T08:49:25.783Z,11.25
2023-05-10T08:52:32.621Z,13.20
2023-05-10T08:55:39.528Z,12.35
2023-05-10T08:58:44.757Z,12.00
2023-05-10T09:01:51.508Z,11.30
2023-05-10T09:04:56.386Z,11.18
2023-05-10T09:08:03.662Z,11.52
2023-05-10T09:11:09.780Z,10.35
2023-05-10T09:14:15.972Z,12.43
2023-05-10T09:17:20.541Z,9.48
2023-05-10T09:20:25.708Z,10.35
2023-05-10T09:23:33.391Z,8.48
2023-05-10T09:26:49.477Z,8.20
2023-05-10T09:29:56.128Z,7.70
2023-05-10T09:33:01.359Z,7.50
2023-05-10T09:36:10.158Z,7.32
2023-05-10T09:39:15.196Z,5.38
2023-05-10T09:42:20.023Z,5.53
2023-05-10T09:45:28.707Z,5.70
2023-05-10T09:48:33.191Z,5.95
2023-05-10T09:51:38.411Z,5.88
2023-05-10T09:54:53.715Z,4.80
2023-05-10T09:58:02.931Z,4.57
2023-05-10T10:01:14.894Z,4.15
2023-05-10T10:04:22.367Z,4.00
2023-05-10T10:07:27.428Z,4.20
2023-05-10T10:10:34.261Z,4.38
2023-05-10T10:13:39.082Z,5.20
2023-05-10T10:16:55.681Z,4.60
2023-05-10T10:20:11.800Z,5.43
2023-05-10T10:23:17.704Z,5.03
2023-05-10T10:26:23.293Z,4.97
2023-05-10T10:30:13.806Z,4.82
2023-05-10T10:34:08.351Z,6.05
2023-05-10T10:37:13.061Z,6.00
2023-05-10T10:40:26.764Z,5.10
2023-05-10T10:43:31.541Z,5.00
2023-05-10T10:46:56.396Z,4.97
2023-05-10T10:50:01.306Z,5.50
2023-05-10T10:53:13.158Z,5.80
2023-05-10T10:56:24.732Z,4.95
2023-05-10T10:59:29.413Z,4.38
2023-05-10T11:02:52.477Z,5.82
2023-05-10T11:06:02.410Z,5.60
2023-05-10T11:09:12.666Z,5.55
2023-05-10T11:12:17.279Z,5.50
2023-05-10T11:15:29.320Z,5.70
2023-05-10T11:18:33.915Z,4.70
2023-05-10T11:22:04.364Z,4.80
2023-05-10T11:25:10.182Z,4.28
2023-05-10T11:28:15.047Z,4.35
2023-05-10T11:31:21.553Z,4.10
2023-05-10T11:34:34.599Z,5.35
2023-05-10T11:37:44.425Z,4.18
2023-05-10T11:40:54.380Z,5.05
2023-05-10T11:43:59.736Z,5.05
2023-05-10T11:47:04.585Z,4.95
2023-05-10T11:50:10.642Z,4.22
2023-05-10T11:53:15.074Z,4.13
2023-05-10T11:56:20.099Z,4.50
2023-05-10T11:59:26.676Z,4.15
2023-05-10T12:02:31.705Z,4.20
2023-05-10T12:05:37.461Z,4.20
2023-05-10T12:08:47.696Z,3.85
2023-05-10T12:12:00.197Z,4.43
2023-05-10T12:15:07.686Z,4.25
2023-05-10T12:18:15.111Z,4.05
2023-05-10T12:21:22.077Z,4.35
2023-05-10T12:24:26.955Z,5.28
2023-05-10T12:27:35.024Z,5.30
2023-05-10T12:30:40.545Z,4.38
2023-05-10T12:33:46.274Z,4.70
2023-05-10T12:36:55.239Z,4.00
2023-05-10T12:40:00.548Z,3.90
2023-05-10T12:43:04.908Z,4.15
2023-05-10T12:46:12.436Z,4.13
2023-05-10T12:49:17.873Z,3.83
2023-05-10T12:52:22.339Z,3.42
2023-05-10T12:55:27.121Z,2.80
2023-05-10T12:58:35.944Z,2.75
2023-05-10T13:01:40.984Z,3.30
2023-05-10T13:04:48.818Z,3.10
2023-05-10T13:07:55.390Z,2.83
2023-05-10T13:11:04.192Z,2.65
2023-05-10T13:14:08.782Z,2.75
2023-05-10T13:17:13.606Z,2.95
2023-05-10T13:20:18.736Z,3.08
2023-05-10T13:23:23.492Z,3.22
2023-05-10T13:26:29.062Z,2.95
2023-05-10T13:29:34.022Z,4.05
2023-05-10T13:32:39.344Z,3.22
2023-05-10T13:35:45.060Z,3.65
2023-05-10T13:38:49.791Z,3.30
2023-05-10T13:41:55.786Z,2.30
2023-05-10T13:45:04.898Z,2.85
2023-05-10T13:48:10.570Z,3.00
2023-05-10T13:51:15.158Z,2.40
2023-05-10T13:54:20.861Z,2.50
2023-05-10T13:57:25.255Z,2.80
2023-05-10T14:00:30.045Z,2.20
2023-05-10T14:03:34.964Z,1.75
2023-05-10T14:06:39.703Z,2.72
2023-05-10T14:09:44.324Z,2.85
2023-05-10T14:12:49.156Z,2.70
2023-05-10T14:15:55.139Z,3.25
2023-05-10T14:19:00.152Z,3.80
2023-05-10T14:22:05.310Z,4.32
2023-05-10T14:25:10.387Z,4.75
2023-05-10T14:28:15.423Z,3.95
2023-05-10T14:31:21.457Z,3.78
2023-05-10T14:34:26.155Z,3.85
2023-05-10T14:37:30.833Z,4.00
2023-05-10T14:40:36.080Z,3.65
2023-05-10T14:43:42.224Z,3.80
2023-05-10T14:46:46.660Z,3.40
2023-05-10T14:49:51.245Z,3.25
2023-05-10T14:52:56.259Z,2.60
2023-05-10T14:56:02.253Z,3.88
2023-05-10T14:59:07.046Z,3.42
2023-05-10T15:02:12.150Z,3.00
2023-05-10T15:05:17.689Z,4.00
2023-05-10T15:08:22.969Z,2.90
2023-05-10T15:11:27.760Z,2.55
2023-05-10T15:14:33.792Z,2.42
2023-05-10T15:17:38.496Z,1.90
2023-05-10T15:20:44.227Z,1.83
2023-05-10T15:23:49.186Z,1.90
2023-05-10T15:26:53.645Z,1.63
2023-05-10T15:29:58.008Z,1.40
2023-05-10T15:33:02.645Z,1.40
2023-05-10T15:36:07.653Z,1.27
2023-05-10T15:39:12.897Z,1.40
2023-05-10T15:42:17.508Z,1.58
2023-05-10T15:45:22.945Z,1.30
2023-05-10T15:48:27.302Z,1.23
2023-05-10T15:51:31.630Z,1.10
2023-05-10T15:54:36.202Z,1.20
2023-05-10T15:57:42.632Z,1.13
2023-05-10T16:00:47.499Z,1.02
2023-05-10T16:03:52.468Z,1.50
2023-05-10T16:06:56.691Z,1.60
2023-05-10T16:10:06.620Z,1.48
2023-05-10T16:13:11.266Z,1.30
2023-05-10T16:16:16.110Z,1.50
2023-05-10T16:19:21.001Z,1.35
2023-05-10T16:22:29.956Z,1.38
2023-05-10T16:25:34.902Z,1.30
2023-05-10T16:28:40.952Z,1.15
2023-05-10T16:31:46.407Z,1.38
2023-05-10T16:34:51.357Z,1.58
2023-05-10T16:37:57.759Z,1.55
2023-05-10T16:41:03.640Z,1.50
2023-05-10T16:44:08.758Z,1.50
2023-05-10T16:47:13.665Z,1.50
2023-05-10T16:50:18.176Z,1.75
2023-05-10T16:53:22.598Z,1.70
2023-05-10T16:56:27.459Z,1.60
2023-05-10T16:59:32.439Z,1.52
2023-05-10T17:02:37.251Z,1.50
2023-05-10T17:05:42.220Z,1.85
2023-05-10T17:08:47.386Z,1.60
2023-05-10T17:11:52.262Z,1.83
2023-05-10T17:14:57.386Z,1.80
2023-05-10T17:18:02.331Z,1.92
2023-05-10T17:21:06.781Z,1.80
2023-05-10T17:24:11.654Z,1.67
2023-05-10T17:27:16.435Z,1.67
2023-05-10T17:30:26.160Z,1.65
2023-05-10T17:33:31.286Z,2.10
2023-05-10T17:36:35.974Z,1.88
2023-05-10T17:39:41.205Z,2.08
2023-05-10T17:42:45.859Z,1.83
2023-05-10T17:45:50.273Z,1.85
2023-05-10T17:48:55.458Z,1.90
2023-05-10T17:52:00.153Z,1.60
2023-05-10T17:55:05.511Z,1.70
2023-05-10T17:58:11.964Z,1.63
2023-05-10T18:01:17.092Z,1.65
2023-05-10T18:04:21.651Z,1.58
2023-05-10T18:07:27.176Z,1.70
2023-05-10T18:10:32.395Z,1.65
2023-05-10T18:13:37.293Z,2.00
2023-05-10T18:16:43.128Z,1.80
2023-05-10T18:19:47.895Z,2.05
2023-05-10T18:22:52.356Z,2.10
2023-05-10T18:25:58.518Z,2.30
2023-05-10T18:29:03.324Z,1.85
2023-05-10T18:32:08.240Z,1.98
2023-05-10T18:35:12.745Z,2.40
2023-05-10T18:38:17.783Z,2.42
2023-05-10T18:41:23.202Z,2.08
2023-05-10T18:44:29.005Z,2.35
2023-05-10T18:47:34.314Z,2.30
2023-05-10T18:50:43.193Z,2.15
2023-05-10T18:53:49.496Z,2.40
2023-05-10T18:56:57.538Z,2.17
2023-05-10T19:00:02.093Z,2.10
2023-05-10T19:03:07.176Z,2.50
2023-05-10T19:06:14.044Z,2.17
2023-05-10T19:09:21.259Z,2.60
2023-05-10T19:12:25.825Z,2.60
2023-05-10T19:15:31.662Z,2.55
2023-05-10T19:18:39.058Z,2.15
2023-05-10T19:21:43.684Z,2.65
2023-05-10T19:24:48.571Z,2.83
2023-05-10T19:27:54.821Z,2.83
2023-05-10T19:31:00.069Z,2.72
2023-05-10T19:34:06.343Z,2.70
2023-05-10T19:37:11.607Z,2.63
2023-05-10T19:40:17.401Z,2.85
2023-05-10T19:43:22.777Z,2.80
2023-05-10T19:46:28.304Z,2.78
2023-05-10T19:49:33.151Z,3.15
2023-05-10T19:52:37.961Z,2.97
2023-05-10T19:55:42.925Z,2.60
2023-05-10T19:58:47.969Z,2.83
2023-05-10T20:01:52.631Z,3.25
2023-05-10T20:04:57.615Z,3.33
2023-05-10T20:08:02.572Z,2.80
2023-05-10T20:11:07.350Z,3.35
2023-05-10T20:14:12.368Z,3.28
2023-05-10T20:17:17.009Z,3.13
2023-05-10T20:20:22.115Z,3.03
2023-05-10T20:23:30.250Z,3.15
2023-05-10T20:26:34.640Z,3.22
2023-05-10T20:29:39.172Z,3.75
2023-05-10T20:32:44.356Z,2.90
2023-05-10T20:35:50.494Z,3.80
2023-05-10T20:38:55.840Z,3.35
2023-05-10T20:42:00.552Z,3.45
2023-05-10T20:45:06.466Z,3.45
2023-05-10T20:48:11.060Z,3.40
2023-05-10T20:51:15.836Z,3.47
2023-05-10T20:54:22.057Z,3.40
2023-05-10T20:57:26.679Z,3.67
2023-05-10T21:00:31.761Z,3.55
2023-05-10T21:03:36.831Z,3.33
2023-05-10T21:06:44.528Z,4.28
2023-05-10T21:09:49.484Z,3.72
2023-05-10T21:12:55.703Z,3.78
2023-05-10T21:16:00.978Z,3.67
2023-05-10T21:19:07.520Z,3.58
2023-05-10T21:22:12.589Z,3.40
2023-05-10T21:25:17.971Z,3.63
2023-05-10T21:28:22.675Z,3.70
2023-05-10T21:31:27.522Z,3.53
2023-05-10T21:34:31.832Z,3.38
2023-05-10T21:37:36.454Z,3.97
2023-05-10T21:40:41.171Z,3.40
2023-05-10T21:43:46.342Z,3.42
2023-05-10T21:46:51.102Z,4.20
2023-05-10T21:49:55.975Z,3.47
2023-05-10T21:53:01.221Z,4.05
2023-05-10T21:56:07.419Z,3.42
2023-05-10T21:59:11.938Z,3.97
2023-05-10T22:02:16.844Z,3.78
2023-05-10T22:05:21.968Z,3.88
2023-05-10T22:08:26.714Z,3.60
2023-05-10T22:11:31.457Z,3.65
2023-05-10T22:14:36.022Z,3.38
2023-05-10T22:17:41.141Z,3.95
2023-05-10T22:20:46.520Z,3.72
2023-05-10T22:23:51.134Z,3.35
2023-05-10T22:26:56.131Z,3.67
2023-05-10T22:30:00.759Z,3.47
2023-05-10T22:33:05.478Z,3.63
2023-05-10T22:36:09.819Z,3.85
2023-05-10T22:39:14.806Z,4.25
2023-05-10T22:42:19.620Z,4.22
2023-05-10T22:45:24.560Z,4.50
2023-05-10T22:48:29.570Z,4.38
2023-05-10T22:51:34.792Z,3.88
2023-05-10T22:54:39.493Z,4.55
2023-05-10T22:57:44.194Z,4.10
2023-05-10T23:00:48.904Z,4.00
2023-05-10T23:03:53.243Z,4.07
2023-05-10T23:06:57.903Z,3.80
2023-05-10T23:10:02.442Z,3.50
2023-05-10T23:13:07.884Z,3.10
2023-05-10T23:16:13.283Z,3.58
2023-05-10T23:19:18.037Z,4.60
2023-05-10T23:22:22.494Z,3.88
2023-05-10T23:25:27.230Z,3.65
2023-05-10T23:28:32.350Z,3.38
2023-05-10T23:31:37.169Z,3.90
2023-05-10T23:34:41.938Z,4.38
2023-05-10T23:37:46.449Z,4.20
2023-05-10T23:40:51.525Z,4.15
2023-05-10T23:43:55.857Z,4.47
2023-05-10T23:47:00.167Z,4.53
2023-05-10T23:50:05.710Z,3.78
2023-05-10T23:53:10.220Z,4.25
2023-05-10T23:56:14.929Z,4.20
2023-05-10T23:59:19.123Z,3.92
